Flight Track Log - Related Links

Times and Time Zones

All times are in EDT time to prevent confusion due to time zone crossing. See the JBU41 flight status page for this flight to view local times or setup timezone preferences in your user account.

Time Position Orientation Groundspeed Altitude Reporting Facility
EDT Latitude Longitude Course Direction KTS MPH feet Rate Location/Type
Wed 11:47:20 AM 40.6500 -73.7167 146° Southeast 173 199 2,400  Level New York TRACON
Wed 11:48:20 AM 40.6667 -73.6333 75° East 247 284 5,200 2,937 Climbing New York TRACON
Wed 11:49:00 AM 40.3604 -73.5167 180° South  Level FlightAware Approximate
Wed 11:50:00 AM 40.2751 -73.4376 159° South  Level FlightAware Approximate
Wed 11:50:30 AM 40.5442 -73.5294 147° Southeast 266 306 11,700  Level New York Center
Wed 11:51:00 AM 40.1902 -73.3449 146° Southeast  Level FlightAware Approximate
Wed 11:51:31 AM 40.4739 -73.4994 162° South 272 313 12,200  Level New York Center
Wed 11:52:00 AM 40.0971 -73.2622 146° Southeast  Level FlightAware Approximate
Wed 11:52:31 AM 40.4100 -73.4722 162° South 272 313 14,600  Level New York Center
Wed 11:54:42 AM 40.2250 -73.4206 168° South 304 350 17,900 1,813 Climbing Washington Center
Wed 11:55:43 AM 40.1242 -73.4942 209° Southwest 349 402 20,400 2,182 Climbing Washington Center
Wed 11:56:43 AM 40.0381 -73.5619 211° Southwest 396 456 22,300 1,322 Climbing Washington Center
Wed 11:57:41 AM 39.9472 -73.6267 209° Southwest 368 423 23,000 403 Climbing Washington Center
Wed 11:58:42 AM 39.8525 -73.6942 209° Southwest 380 437 23,100 934 Climbing Washington Center
Wed 11:59:43 AM 39.7619 -73.7642 211° Southwest 380 437 24,900 1,613 Climbing Washington Center
Wed 12:00:41 PM 39.6672 -73.8311 209° Southwest 380 437 26,300 1,361 Climbing Washington Center
Wed 12:01:42 PM 39.5722 -73.9008 210° Southwest 390 449 27,600 1,140 Climbing Washington Center
Wed 12:02:42 PM 39.4733 -73.9731 209° Southwest 396 456 28,600 843 Climbing Washington Center
Wed 12:03:43 PM 39.3867 -74.0422 212° Southwest 406 467 29,300 958 Climbing Washington Center
Wed 12:04:41 PM 39.2942 -74.1461 221° Southwest 425 489 30,500 1,513 Climbing Washington Center
Wed 12:05:42 PM 39.2058 -74.2442 221° Southwest 430 495 32,300 1,289 Climbing Washington Center
Wed 12:06:42 PM 39.1150 -74.3422 220° Southwest 430 495 33,100 843 Climbing Washington Center
Wed 12:07:43 PM 39.0264 -74.4372 220° Southwest 430 495 34,000 793 Climbing Washington Center
Wed 12:08:43 PM 38.9356 -74.5375 221° Southwest 430 495 34,700 1,017 Climbing Washington Center
Wed 12:09:41 PM 38.8447 -74.6347 220° Southwest 430 495 36,000 655 Climbing Washington Center
Wed 12:10:42 PM 38.7558 -74.7292 220° Southwest 425 489 36,000  Level Washington Center
Wed 12:11:42 PM 38.6689 -74.8233 220° Southwest 425 489 36,000 -50 Level Washington Center
Wed 12:12:43 PM 38.5778 -74.9144 218° Southwest 425 489 35,900  Descending Washington Center
Wed 12:13:43 PM 38.4781 -74.9922 211° Southwest 425 489 36,000 51 Climbing Washington Center
Wed 12:14:40 PM 38.3764 -75.0672 210° Southwest 425 489 36,000 -50 Level Washington Center
Wed 12:15:42 PM 38.2661 -75.1475 210° Southwest 425 489 35,900  Descending Washington Center
Wed 12:16:42 PM 38.1664 -75.2247 211° Southwest 425 489 36,000 50 Climbing Washington Center
Wed 12:17:43 PM 38.0644 -75.3017 211° Southwest 425 489 36,000  Level Washington Center
Wed 12:18:41 PM 37.9581 -75.3758 209° Southwest 425 489 36,000  Level Washington Center
Wed 12:19:42 PM 37.8581 -75.4497 210° Southwest 430 495 36,000  Level Washington Center
Wed 12:20:43 PM 37.7539 -75.5289 211° Southwest 430 495 36,000  Level Washington Center
Wed 12:21:41 PM 37.6497 -75.6022 209° Southwest 430 495 36,000  Level Washington Center
Wed 12:22:41 PM 37.5475 -75.6731 209° Southwest 430 495 36,000 -50 Level Washington Center
Wed 12:23:42 PM 37.4453 -75.7489 211° Southwest 425 489 35,900  Descending Washington Center
Wed 12:24:43 PM 37.3450 -75.8217 210° Southwest 425 489 36,000  Climbing Washington Center
Wed 12:25:43 PM 37.2425 -75.8944 209° Southwest 425 489 35,900 -51 Descending Washington Center
Wed 12:26:41 PM 37.1400 -75.9669 209° Southwest 425 489 35,900 51 Level Washington Center
Wed 12:27:41 PM 37.0378 -76.0419 210° Southwest 425 489 36,000 50 Climbing Washington Center
Wed 12:28:42 PM 36.9372 -76.1064 207° Southwest 425 489 36,000  Level Washington Center
Wed 12:29:43 PM 36.8325 -76.1811 210° Southwest 435 501 36,000  Level Washington Center
Wed 12:30:41 PM 36.7258 -76.2581 210° Southwest 440 506 36,000  Level Washington Center
Wed 12:31:41 PM 36.6106 -76.3397 210° Southwest 440 506 36,000  Level Washington Center
Wed 12:32:43 PM 36.5036 -76.4164 210° Southwest 440 506 36,000  Level Washington Center
Wed 12:33:41 PM 36.3989 -76.4875 209° Southwest 440 506 36,000 -51 Level Washington Center
Wed 12:34:41 PM 36.2961 -76.5583 209° Southwest 440 506 35,900 -50 Descending Washington Center
Wed 12:35:42 PM 36.1911 -76.6292 209° Southwest 440 506 35,900  Level Washington Center
Wed 12:36:43 PM 36.0883 -76.7025 210° Southwest 440 506 35,900 50 Level Washington Center
Wed 12:37:42 PM 35.9833 -76.7753 209° Southwest 440 506 36,000 50 Climbing Washington Center
Wed 12:38:42 PM 35.8889 -76.8381 208° Southwest 440 506 36,000  Level Washington Center
Wed 12:39:43 PM 35.7836 -76.9106 209° Southwest 440 506 36,000  Level Washington Center
Wed 12:40:41 PM 35.6786 -76.9806 208° Southwest 440 506 36,000  Level Washington Center
Wed 12:41:41 PM 35.5797 -77.0528 211° Southwest 434 499 36,000  Level Washington Center
Wed 12:42:41 PM 35.4722 -77.1247 209° Southwest 429 494 36,000  Level Washington Center
Wed 12:43:42 PM 35.3692 -77.1942 209° Southwest 429 494 36,000  Level Washington Center
Wed 12:44:42 PM 35.2658 -77.2658 210° Southwest 429 494 36,000  Level Washington Center
Wed 12:45:43 PM 35.1606 -77.3350 208° Southwest 429 494 36,000  Level Washington Center
Wed 12:46:40 PM 35.0575 -77.4011 208° Southwest 429 494 36,000  Level Washington Center
Wed 12:47:41 PM 34.9519 -77.4747 210° Southwest 429 494 36,000  Level Washington Center
Wed 12:48:41 PM 34.8486 -77.5433 209° Southwest 429 494 36,000  Level Washington Center
Wed 12:49:42 PM 34.7472 -77.6167 211° Southwest 429 494 36,000  Level Washington Center
Wed 12:50:43 PM 34.6439 -77.6847 208° Southwest 424 488 36,000  Level Washington Center
Wed 12:51:41 PM 34.5403 -77.7528 208° Southwest 424 488 36,000  Level Washington Center
Wed 12:52:42 PM 34.4369 -77.8206 208° Southwest 424 488 36,000  Level Washington Center
Wed 12:53:43 PM 34.3336 -77.8806 206° Southwest 424 488 36,000  Level Washington Center
Wed 12:55:26 PM 34.1147 -77.9417 193° South 424 488 36,000  Level Jacksonville Center
Wed 12:56:26 PM 34.0014 -77.9731 193° South 436 502 36,000  Level Jacksonville Center
Wed 12:57:26 PM 33.8858 -78.0094 195° South 431 496 36,000  Level Jacksonville Center
Wed 12:58:26 PM 33.7747 -78.0456 195° South 429 494 36,000 -50 Level Jacksonville Center
Wed 12:59:26 PM 33.6714 -78.0714 192° South 429 494 35,900 -50 Descending Jacksonville Center
Wed 01:00:26 PM 33.5597 -78.1022 193° South 429 494 35,900 50 Level Jacksonville Center
Wed 01:01:26 PM 33.4483 -78.1358 194° South 429 494 36,000 50 Climbing Jacksonville Center
Wed 01:02:26 PM 33.3328 -78.1667 193° South 424 488 36,000  Level Jacksonville Center
Wed 01:03:27 PM 33.2211 -78.2000 194° South 424 488 36,000  Level Jacksonville Center
Wed 01:04:26 PM 33.1075 -78.2283 192° South 424 488 36,000  Level Jacksonville Center
Wed 01:05:26 PM 32.9961 -78.2614 194° South 424 488 36,000  Level Jacksonville Center
Wed 01:06:26 PM 32.8803 -78.2919 192° South 429 494 36,000  Level Jacksonville Center
Wed 01:07:26 PM 32.7686 -78.3225 193° South 429 494 36,000  Level Jacksonville Center
Wed 01:08:26 PM 32.6572 -78.3553 194° South 429 494 36,000 -50 Level Jacksonville Center
Wed 01:09:26 PM 32.5456 -78.3853 193° South 429 494 35,900  Descending Jacksonville Center
Wed 01:10:26 PM 32.4339 -78.4131 192° South 424 488 36,000 50 Climbing Jacksonville Center
Wed 01:11:26 PM 32.3267 -78.4528 197° South 414 476 36,000  Level Jacksonville Center
Wed 01:12:26 PM 32.2131 -78.4878 195° South 414 476 36,000  Level Jacksonville Center
Wed 01:13:27 PM 32.1036 -78.5200 194° South 414 476 36,000 -50 Level Jacksonville Center
Wed 01:14:27 PM 31.9900 -78.5522 194° South 414 476 35,900  Descending Jacksonville Center
Wed 01:15:26 PM 31.8803 -78.5844 194° South 414 476 36,000 50 Climbing Jacksonville Center
Wed 01:16:26 PM 31.7728 -78.6139 193° South 409 471 36,000  Level Jacksonville Center
Wed 01:17:27 PM 31.6633 -78.6458 194° South 409 471 36,000 -50 Level Jacksonville Center
Wed 01:18:26 PM 31.5558 -78.6775 194° South 409 471 35,900  Descending Jacksonville Center
Wed 01:19:27 PM 31.4461 -78.7092 194° South 409 471 36,000 50 Climbing Jacksonville Center
Wed 01:20:26 PM 31.3367 -78.7408 194° South 409 471 36,000 -50 Level Jacksonville Center
Wed 01:21:26 PM 31.2289 -78.7700 193° South 414 476 35,900  Descending Jacksonville Center
Wed 01:22:26 PM 31.1175 -78.8064 196° South 414 476 36,000 50 Climbing Jacksonville Center
Wed 01:23:26 PM 30.9994 -78.8356 192° South 409 471 36,000  Level Jacksonville Center
Wed 01:24:26 PM 30.8856 -78.8647 192° South 418 481 36,000  Level Jacksonville Center
Wed 01:25:26 PM 30.7781 -78.8983 195° South 411 473 36,000  Level Jacksonville Center
Wed 01:26:26 PM 30.6661 -78.9272 193° South 416 479 36,000  Level Jacksonville Center
Wed 01:27:46 PM 30.5378 -78.9625 193° South 412 474 36,000 -43 Level Miami Center
Wed 01:28:46 PM 30.4289 -78.9939 194° South 412 474 35,900  Descending Miami Center
Wed 01:29:46 PM 30.3219 -79.0397 200° South 411 473 36,000 50 Climbing Miami Center
Wed 01:30:46 PM 30.2108 -79.0856 200° South 411 473 36,000  Level Miami Center
Wed 01:31:46 PM 30.1058 -79.1336 202° Southwest 411 473 36,000  Level Miami Center
Wed 01:32:46 PM 30.0008 -79.1842 203° Southwest 411 473 36,000  Level Miami Center
Wed 01:33:46 PM 29.8936 -79.2344 202° Southwest 416 479 36,000  Level Miami Center
Wed 01:34:46 PM 29.7886 -79.2800 201° Southwest 421 484 36,000  Level Miami Center
Wed 01:35:46 PM 29.6794 -79.3253 200° South 415 478 36,000  Level Miami Center
Wed 01:36:46 PM 29.5722 -79.3706 200° South 415 478 36,000  Level Miami Center
Wed 01:37:46 PM 29.4650 -79.4206 202° Southwest 420 483 36,000 -150 Level Miami Center
Wed 01:38:46 PM 29.3558 -79.4633 199° South 413 475 35,700 -1,200 Descending Miami Center
Wed 01:39:46 PM 29.2486 -79.5131 202° Southwest 413 475 33,600 -2,150 Descending Miami Center
Wed 01:40:46 PM 29.1594 -79.5844 215° Southwest 409 471 31,400 -2,250 Descending Miami Center
Wed 01:41:46 PM 29.0847 -79.6753 227° Southwest 392 451 29,100 -2,250 Descending Miami Center
Wed 01:42:46 PM 29.0325 -79.7808 241° Southwest 385 443 26,900 -2,200 Descending Miami Center
Wed 01:43:46 PM 28.9947 -79.8914 249° West 379 436 24,700 -2,200 Descending Miami Center
Wed 01:44:46 PM 28.9631 -80.0067 253° West 379 436 22,500 -2,150 Descending Miami Center
Wed 01:45:46 PM 28.9272 -80.1122 249° West 374 430 20,400 -2,187 Descending Miami Center
Wed 01:48:20 PM 28.8500 -80.3833 252° West 342 394 14,700 -1,794 Descending Orlando TRACON
Wed 01:49:20 PM 28.8167 -80.4833 249° West 327 376 14,000 -700 Descending Orlando TRACON
Wed 01:50:20 PM 28.8000 -80.6000 261° West 328 377 13,300 -1,450 Descending Orlando TRACON
Wed 01:51:20 PM 28.8000 -80.7000 270° West 321 369 11,100 -1,650 Descending Orlando TRACON
Wed 01:52:20 PM 28.7833 -80.7833 257° West 304 350 10,000 -520 Descending Orlando TRACON
Wed 01:53:27 PM 28.7667 -80.8833 259° West 270 311 10,000 -283 Level Orlando TRACON
Wed 01:54:27 PM 28.7500 -80.9667 257° West 265 305 9,400 -1,158 Descending Orlando TRACON
Wed 01:55:21 PM 28.7500 -81.0333 270° West 256 295 7,800 -1,778 Descending Orlando TRACON
Wed 01:56:15 PM 28.7333 -81.1000 254° West 235 270 6,200 -1,714 Descending Orlando TRACON
Wed 01:57:27 PM 28.6833 -81.1833 236° Southwest 229 264 4,200 -1,091 Descending Orlando TRACON
Wed 01:58:27 PM 28.6667 -81.2500 254° West 238 274 3,800 -667 Descending Orlando TRACON
Wed 01:59:15 PM 28.6333 -81.3000 233° Southwest 237 273 3,000 -626 Descending Orlando TRACON
Wed 02:00:22 PM 28.5667 -81.3167 192° South 204 235 2,600 -709 Descending Orlando TRACON
Wed 02:01:22 PM 28.5167 -81.3333 196° South 163 188 1,500 -850 Descending Orlando TRACON
Wed 02:02:22 PM 28.4833 -81.3333 180° South 131 151 900 -614 Descending Orlando TRACON
Wed 02:02:50 PM 28.4667 -81.3333 180° South 131 151 600 -643 Descending Orlando TRACON

Login

Don't have an account? Register now (free) for customized features, flight alerts, and more!